APG912 RPLL-RPVE
Flight info
| Callsign | APG912 |
|---|---|
| Flight time | 0h 35m |
| Altitude | 26000 |
| Route | VERDE2R VERDE W24 TAPER TAPER7B |
| Aircraft | A320/M-SDE3FGHIRWY/LB1 |
Departure
| Time | 2026-05-07 03:36 |
|---|---|
| Airport | Ninoy Aquino International Airport (RPLL) |
Arrival
| Time | 2026-05-07 04:12 |
|---|---|
| Airport | Godofredo P. Ramos Airport (RPVE) |
| Time | Latitude | Longitude | Altitude | Speed | Heading |
|---|---|---|---|---|---|
| 2026-05-07 03:22 | 14.50862 | 121.01337 | 68 ft | 0 kts | 329° |
| 2026-05-07 03:26 | 14.50858 | 121.01339 | 68 ft | 2 kts | 328° |
| 2026-05-07 03:26 | 14.50844 | 121.01348 | 59 ft | 2 kts | 329° |
| 2026-05-07 03:26 | 14.50830 | 121.01357 | 66 ft | 2 kts | 330° |
| 2026-05-07 03:27 | 14.50815 | 121.01365 | 65 ft | 2 kts | 334° |
| 2026-05-07 03:27 | 14.50800 | 121.01370 | 64 ft | 2 kts | 343° |
| 2026-05-07 03:27 | 14.50789 | 121.01381 | 63 ft | 2 kts | 250° |
| 2026-05-07 03:27 | 14.50794 | 121.01394 | 59 ft | 1 kts | 242° |
| 2026-05-07 03:28 | 14.50794 | 121.01395 | 59 ft | 0 kts | 241° |
| 2026-05-07 03:29 | 14.50778 | 121.01365 | 62 ft | 16 kts | 241° |
| 2026-05-07 03:29 | 14.50667 | 121.01300 | 69 ft | 23 kts | 207° |
| 2026-05-07 03:29 | 14.50569 | 121.01143 | 59 ft | 29 kts | 240° |
| 2026-05-07 03:29 | 14.50492 | 121.01002 | 64 ft | 20 kts | 240° |
| 2026-05-07 03:30 | 14.50425 | 121.00882 | 59 ft | 19 kts | 240° |
| 2026-05-07 03:30 | 14.50361 | 121.00767 | 63 ft | 18 kts | 241° |
| 2026-05-07 03:30 | 14.50308 | 121.00668 | 64 ft | 16 kts | 239° |
| 2026-05-07 03:30 | 14.50253 | 121.00572 | 68 ft | 15 kts | 240° |
| 2026-05-07 03:31 | 14.50203 | 121.00483 | 65 ft | 14 kts | 240° |
| 2026-05-07 03:31 | 14.50158 | 121.00403 | 68 ft | 12 kts | 240° |
| 2026-05-07 03:31 | 14.50118 | 121.00331 | 62 ft | 11 kts | 240° |
| 2026-05-07 03:31 | 14.50069 | 121.00242 | 61 ft | 21 kts | 240° |
| 2026-05-07 03:32 | 14.49987 | 121.00097 | 63 ft | 24 kts | 240° |
| 2026-05-07 03:32 | 14.49920 | 120.99979 | 65 ft | 12 kts | 229° |
| 2026-05-07 03:32 | 14.49873 | 120.99968 | 63 ft | 0 kts | 151° |
| 2026-05-07 03:33 | 14.49869 | 120.99970 | 64 ft | 2 kts | 151° |
| 2026-05-07 03:33 | 14.49828 | 120.99993 | 66 ft | 11 kts | 148° |
| 2026-05-07 03:33 | 14.49820 | 121.00071 | 65 ft | 14 kts | 59° |
| 2026-05-07 03:33 | 14.49846 | 121.00116 | 65 ft | 0 kts | 60° |
| 2026-05-07 03:35 | 14.49856 | 121.00134 | 59 ft | 19 kts | 60° |
| 2026-05-07 03:35 | 14.50067 | 121.00516 | 65 ft | 98 kts | 59° |
| 2026-05-07 03:36 | 14.50496 | 121.01307 | 69 ft | 152 kts | 62° |
| 2026-05-07 03:36 | 14.51028 | 121.02323 | 590 ft | 163 kts | 64° |
| 2026-05-07 03:36 | 14.51570 | 121.03377 | 1290 ft | 169 kts | 62° |
| 2026-05-07 03:36 | 14.52197 | 121.04498 | 1849 ft | 192 kts | 60° |
| 2026-05-07 03:37 | 14.52916 | 121.05765 | 2426 ft | 217 kts | 60° |
| 2026-05-07 03:37 | 14.53719 | 121.07180 | 2995 ft | 241 kts | 61° |
| 2026-05-07 03:37 | 14.54597 | 121.08733 | 3625 ft | 257 kts | 60° |
| 2026-05-07 03:37 | 14.55492 | 121.10356 | 4559 ft | 261 kts | 65° |
| 2026-05-07 03:38 | 14.55980 | 121.12162 | 5456 ft | 265 kts | 86° |
| 2026-05-07 03:38 | 14.55790 | 121.14068 | 6355 ft | 271 kts | 107° |
| 2026-05-07 03:38 | 14.54917 | 121.15800 | 7058 ft | 277 kts | 128° |
| 2026-05-07 03:38 | 14.53533 | 121.17203 | 7903 ft | 282 kts | 141° |
| 2026-05-07 03:39 | 14.51761 | 121.18099 | 8710 ft | 289 kts | 165° |
| 2026-05-07 03:39 | 14.49731 | 121.18161 | 9545 ft | 297 kts | 186° |
| 2026-05-07 03:39 | 14.47701 | 121.17855 | 10275 ft | 303 kts | 186° |
| 2026-05-07 03:39 | 14.45534 | 121.17522 | 10522 ft | 327 kts | 186° |
| 2026-05-07 03:40 | 14.43201 | 121.17167 | 10733 ft | 349 kts | 187° |
| 2026-05-07 03:40 | 14.40769 | 121.16796 | 11256 ft | 357 kts | 187° |
| 2026-05-07 03:40 | 14.38284 | 121.16416 | 11898 ft | 362 kts | 187° |
| 2026-05-07 03:40 | 14.35771 | 121.16031 | 12564 ft | 366 kts | 187° |
| 2026-05-07 03:41 | 14.33233 | 121.15645 | 13225 ft | 370 kts | 186° |
| 2026-05-07 03:41 | 14.30670 | 121.15255 | 13858 ft | 374 kts | 186° |
| 2026-05-07 03:41 | 14.28117 | 121.14869 | 14423 ft | 377 kts | 186° |
| 2026-05-07 03:41 | 14.25506 | 121.14477 | 15004 ft | 381 kts | 186° |
| 2026-05-07 03:42 | 14.22862 | 121.14078 | 15586 ft | 384 kts | 186° |
| 2026-05-07 03:42 | 14.20209 | 121.13679 | 16157 ft | 388 kts | 186° |
| 2026-05-07 03:42 | 14.17527 | 121.13275 | 16713 ft | 391 kts | 186° |
| 2026-05-07 03:42 | 14.14824 | 121.12867 | 17272 ft | 394 kts | 186° |
| 2026-05-07 03:43 | 14.12097 | 121.12456 | 17805 ft | 398 kts | 186° |
| 2026-05-07 03:43 | 14.09346 | 121.12039 | 18326 ft | 401 kts | 186° |
| 2026-05-07 03:43 | 14.06604 | 121.11624 | 18786 ft | 404 kts | 186° |
| 2026-05-07 03:43 | 14.03811 | 121.11204 | 19250 ft | 407 kts | 186° |
| 2026-05-07 03:44 | 14.00960 | 121.10777 | 19701 ft | 410 kts | 186° |
| 2026-05-07 03:44 | 13.98126 | 121.10350 | 20139 ft | 413 kts | 186° |
| 2026-05-07 03:44 | 13.95309 | 121.09928 | 20585 ft | 416 kts | 186° |
| 2026-05-07 03:44 | 13.92428 | 121.09495 | 21027 ft | 419 kts | 187° |
| 2026-05-07 03:45 | 13.89529 | 121.09062 | 21457 ft | 423 kts | 187° |
| 2026-05-07 03:45 | 13.86603 | 121.08620 | 21885 ft | 426 kts | 187° |
| 2026-05-07 03:45 | 13.83658 | 121.08176 | 22316 ft | 429 kts | 187° |
| 2026-05-07 03:45 | 13.80691 | 121.07730 | 22749 ft | 432 kts | 187° |
| 2026-05-07 03:46 | 13.77711 | 121.07282 | 23168 ft | 435 kts | 187° |
| 2026-05-07 03:46 | 13.74706 | 121.06830 | 23555 ft | 437 kts | 187° |
| 2026-05-07 03:46 | 13.71687 | 121.06376 | 23905 ft | 440 kts | 187° |
| 2026-05-07 03:46 | 13.68639 | 121.05918 | 24268 ft | 442 kts | 187° |
| 2026-05-07 03:47 | 13.65578 | 121.05457 | 24636 ft | 445 kts | 187° |
| 2026-05-07 03:47 | 13.62508 | 121.04996 | 24843 ft | 446 kts | 187° |
| 2026-05-07 03:47 | 13.59477 | 121.04542 | 24903 ft | 446 kts | 187° |
| 2026-05-07 03:47 | 13.56400 | 121.04095 | 24907 ft | 445 kts | 185° |
| 2026-05-07 03:48 | 13.53304 | 121.04041 | 24908 ft | 444 kts | 174° |
| 2026-05-07 03:48 | 13.50264 | 121.04549 | 24909 ft | 443 kts | 164° |
| 2026-05-07 03:48 | 13.47365 | 121.05584 | 24911 ft | 441 kts | 154° |
| 2026-05-07 03:48 | 13.44707 | 121.07135 | 24916 ft | 439 kts | 144° |
| 2026-05-07 03:49 | 13.42188 | 121.08922 | 24918 ft | 439 kts | 144° |
| 2026-05-07 03:49 | 13.39672 | 121.10702 | 24922 ft | 439 kts | 144° |
| 2026-05-07 03:49 | 13.37155 | 121.12471 | 24920 ft | 439 kts | 144° |
| 2026-05-07 03:49 | 13.34630 | 121.14242 | 24919 ft | 439 kts | 144° |
| 2026-05-07 03:50 | 13.32110 | 121.16009 | 24915 ft | 439 kts | 144° |
| 2026-05-07 03:50 | 13.29591 | 121.17778 | 24923 ft | 439 kts | 144° |
| 2026-05-07 03:50 | 13.27066 | 121.19550 | 24920 ft | 439 kts | 144° |
| 2026-05-07 03:50 | 13.24546 | 121.21316 | 24925 ft | 439 kts | 144° |
| 2026-05-07 03:51 | 13.22017 | 121.23089 | 24924 ft | 439 kts | 144° |
| 2026-05-07 03:51 | 13.19616 | 121.24771 | 24923 ft | 439 kts | 144° |
| 2026-05-07 03:51 | 13.17124 | 121.26516 | 24924 ft | 439 kts | 144° |
| 2026-05-07 03:51 | 13.14601 | 121.28283 | 24930 ft | 439 kts | 144° |
| 2026-05-07 03:52 | 13.12081 | 121.30050 | 24928 ft | 439 kts | 144° |
| 2026-05-07 03:52 | 13.09564 | 121.31817 | 24920 ft | 439 kts | 144° |
| 2026-05-07 03:52 | 13.07046 | 121.33583 | 24918 ft | 438 kts | 144° |
| 2026-05-07 03:52 | 13.04525 | 121.35349 | 24929 ft | 438 kts | 144° |
| 2026-05-07 03:53 | 13.02010 | 121.37109 | 24920 ft | 438 kts | 144° |
| 2026-05-07 03:53 | 12.99490 | 121.38873 | 24921 ft | 438 kts | 144° |
| 2026-05-07 03:53 | 12.96976 | 121.40633 | 24922 ft | 438 kts | 144° |
| 2026-05-07 03:53 | 12.94460 | 121.42391 | 24926 ft | 438 kts | 144° |
| 2026-05-07 03:54 | 12.91943 | 121.44149 | 24918 ft | 438 kts | 144° |
| 2026-05-07 03:54 | 12.89422 | 121.45906 | 24926 ft | 438 kts | 144° |
| 2026-05-07 03:54 | 12.86903 | 121.47661 | 24917 ft | 438 kts | 144° |
| 2026-05-07 03:54 | 12.84390 | 121.49415 | 24909 ft | 438 kts | 144° |
| 2026-05-07 03:55 | 12.81872 | 121.51176 | 24910 ft | 438 kts | 144° |
| 2026-05-07 03:55 | 12.79360 | 121.52932 | 24909 ft | 438 kts | 144° |
| 2026-05-07 03:55 | 12.76836 | 121.54693 | 24773 ft | 439 kts | 144° |
| 2026-05-07 03:55 | 12.74352 | 121.56424 | 24428 ft | 435 kts | 144° |
| 2026-05-07 03:56 | 12.71853 | 121.58169 | 23772 ft | 434 kts | 144° |
| 2026-05-07 03:56 | 12.69369 | 121.59907 | 23073 ft | 432 kts | 144° |
| 2026-05-07 03:56 | 12.66901 | 121.61634 | 22437 ft | 428 kts | 144° |
| 2026-05-07 03:56 | 12.64457 | 121.63342 | 21870 ft | 423 kts | 144° |
| 2026-05-07 03:57 | 12.62038 | 121.65031 | 21308 ft | 418 kts | 144° |
| 2026-05-07 03:57 | 12.59650 | 121.66694 | 20776 ft | 413 kts | 144° |
| 2026-05-07 03:57 | 12.57283 | 121.68340 | 20257 ft | 409 kts | 144° |
| 2026-05-07 03:57 | 12.54947 | 121.69964 | 19745 ft | 404 kts | 144° |
| 2026-05-07 03:58 | 12.53773 | 121.70780 | 19491 ft | 402 kts | 144° |
| 2026-05-07 03:58 | 12.52640 | 121.71568 | 19273 ft | 399 kts | 144° |
| 2026-05-07 03:58 | 12.50377 | 121.73143 | 18744 ft | 397 kts | 144° |
| 2026-05-07 03:58 | 12.48103 | 121.74726 | 18237 ft | 394 kts | 144° |
| 2026-05-07 03:59 | 12.45845 | 121.76300 | 17668 ft | 391 kts | 144° |
| 2026-05-07 03:59 | 12.43598 | 121.77864 | 17134 ft | 388 kts | 144° |
| 2026-05-07 03:59 | 12.41369 | 121.79411 | 16609 ft | 385 kts | 144° |
| 2026-05-07 03:59 | 12.39160 | 121.80943 | 16075 ft | 382 kts | 144° |
| 2026-05-07 04:00 | 12.36913 | 121.82381 | 15542 ft | 382 kts | 151° |
| 2026-05-07 04:00 | 12.34446 | 121.83394 | 14988 ft | 383 kts | 161° |
| 2026-05-07 04:00 | 12.31888 | 121.84151 | 14425 ft | 382 kts | 162° |
| 2026-05-07 04:00 | 12.29335 | 121.84905 | 13863 ft | 382 kts | 161° |
| 2026-05-07 04:01 | 12.26788 | 121.85661 | 13236 ft | 381 kts | 161° |
| 2026-05-07 04:01 | 12.24253 | 121.86415 | 12672 ft | 378 kts | 161° |
| 2026-05-07 04:01 | 12.21735 | 121.87166 | 12083 ft | 375 kts | 161° |
| 2026-05-07 04:01 | 12.20181 | 121.87629 | 11720 ft | 374 kts | 161° |
| 2026-05-07 04:02 | 12.17694 | 121.88369 | 11125 ft | 371 kts | 161° |
| 2026-05-07 04:02 | 12.14390 | 121.89353 | 10480 ft | 364 kts | 161° |
| 2026-05-07 04:02 | 12.12804 | 121.89822 | 10421 ft | 353 kts | 161° |
| 2026-05-07 04:02 | 12.10493 | 121.90503 | 10291 ft | 338 kts | 161° |
| 2026-05-07 04:03 | 12.08281 | 121.91140 | 10178 ft | 324 kts | 164° |
| 2026-05-07 04:03 | 12.06063 | 121.91263 | 10066 ft | 318 kts | 185° |
| 2026-05-07 04:03 | 12.03982 | 121.90564 | 9943 ft | 314 kts | 207° |
| 2026-05-07 04:03 | 12.02300 | 121.89159 | 9582 ft | 316 kts | 229° |
| 2026-05-07 04:04 | 12.01031 | 121.87326 | 9243 ft | 314 kts | 234° |
| 2026-05-07 04:04 | 12.00208 | 121.86108 | 8905 ft | 316 kts | 233° |
| 2026-05-07 04:05 | 11.99902 | 121.85658 | 8845 ft | 314 kts | 233° |
| 2026-05-07 04:06 | 11.99518 | 121.85095 | 8574 ft | 317 kts | 233° |
| 2026-05-07 04:06 | 11.98214 | 121.83203 | 8108 ft | 318 kts | 233° |
| 2026-05-07 04:06 | 11.96963 | 121.81393 | 7930 ft | 308 kts | 233° |
| 2026-05-07 04:06 | 11.95749 | 121.79634 | 7459 ft | 308 kts | 233° |
| 2026-05-07 04:07 | 11.94489 | 121.77812 | 6802 ft | 318 kts | 233° |
| 2026-05-07 04:07 | 11.93192 | 121.75943 | 6321 ft | 318 kts | 232° |
| 2026-05-07 04:07 | 11.91611 | 121.74411 | 5845 ft | 312 kts | 205° |
| 2026-05-07 04:07 | 11.89566 | 121.73890 | 5388 ft | 301 kts | 174° |
| 2026-05-07 04:08 | 11.87614 | 121.74417 | 4954 ft | 292 kts | 153° |
| 2026-05-07 04:08 | 11.85796 | 121.75315 | 4510 ft | 289 kts | 148° |
| 2026-05-07 04:08 | 11.84243 | 121.76544 | 4056 ft | 279 kts | 122° |
| 2026-05-07 04:08 | 11.83615 | 121.78341 | 3684 ft | 267 kts | 89° |
| 2026-05-07 04:09 | 11.84020 | 121.80141 | 3359 ft | 259 kts | 66° |
| 2026-05-07 04:09 | 11.84879 | 121.81741 | 3009 ft | 255 kts | 58° |
| 2026-05-07 04:09 | 11.85846 | 121.83255 | 2645 ft | 251 kts | 57° |
| 2026-05-07 04:09 | 11.86785 | 121.84740 | 2293 ft | 248 kts | 59° |
| 2026-05-07 04:10 | 11.87664 | 121.86220 | 2034 ft | 239 kts | 60° |
| 2026-05-07 04:10 | 11.88489 | 121.87695 | 1656 ft | 238 kts | 60° |
| 2026-05-07 04:10 | 11.89252 | 121.89122 | 1361 ft | 219 kts | 62° |
| 2026-05-07 04:10 | 11.89938 | 121.90444 | 1049 ft | 201 kts | 61° |
| 2026-05-07 04:11 | 11.90575 | 121.91685 | 791 ft | 192 kts | 62° |
| 2026-05-07 04:11 | 11.91154 | 121.92826 | 556 ft | 167 kts | 63° |
| 2026-05-07 04:11 | 11.91648 | 121.93803 | 324 ft | 145 kts | 63° |
| 2026-05-07 04:11 | 11.92084 | 121.94682 | 154 ft | 134 kts | 64° |
| 2026-05-07 04:12 | 11.92509 | 121.95505 | 37 ft | 121 kts | 63° |
| 2026-05-07 04:12 | 11.92799 | 121.96081 | 26 ft | 49 kts | 63° |
| 2026-05-07 04:12 | 11.92906 | 121.96293 | 28 ft | 30 kts | 63° |
| 2026-05-07 04:12 | 11.92963 | 121.96438 | 24 ft | 16 kts | 105° |
| 2026-05-07 04:13 | 11.92877 | 121.96502 | 28 ft | 15 kts | 154° |
| 2026-05-07 04:13 | 11.92799 | 121.96522 | 26 ft | 9 kts | 208° |
| 2026-05-07 04:13 | 11.92773 | 121.96472 | 26 ft | 8 kts | 244° |
| 2026-05-07 04:13 | 11.92749 | 121.96428 | 26 ft | 5 kts | 225° |
| 2026-05-07 04:14 | 11.92717 | 121.96433 | 26 ft | 4 kts | 156° |
| 2026-05-07 04:14 | 11.92711 | 121.96436 | 26 ft | 1 kts | 153° |
| 2026-05-07 04:14 | 11.92707 | 121.96438 | 26 ft | 0 kts | 153° |